Time;durP1;ratioP1;P1;durP2;ratioP2;P2;SDS_P1;SDS_P2;PMS_P1;PMS_P2;Temp;Humidity;BMP_temperature;BMP_pressure;BME280_temperature;BME280_humidity;BME280_pressure;Samples;Min_cycle;Max_cycle;Signal;HPM_P1;HPM_P2
2020/12/31 00:01:32;;;;;;;11.00;6.90;;;2.40;99.90;;;;;;4932265;28;20813;-89
2020/12/31 00:03:58;;;;;;;9.87;6.50;;;2.40;99.90;;;;;;4929165;29;20201;-88
2020/12/31 00:06:24;;;;;;;9.10;6.13;;;2.40;99.90;;;;;;4933404;28;20451;-88
2020/12/31 00:08:49;;;;;;;11.43;7.47;;;2.40;99.90;;;;;;4931792;28;20197;-88
2020/12/31 00:11:15;;;;;;;6.77;5.13;;;2.40;99.90;;;;;;4931801;28;20198;-88
2020/12/31 00:13:41;;;;;;;11.30;7.07;;;2.40;99.90;;;;;;4931426;28;20199;-88
2020/12/31 00:16:07;;;;;;;9.47;7.10;;;2.40;99.90;;;;;;4952137;28;20223;-90
2020/12/31 00:18:33;;;;;;;7.80;6.43;;;2.40;99.90;;;;;;4929279;28;20431;-88
2020/12/31 00:21:02;;;;;;;10.50;7.10;;;2.50;99.90;;;;;;4948856;28;20578;-89
2020/12/31 00:23:27;;;;;;;12.63;7.60;;;2.50;99.90;;;;;;4937677;28;20955;-86
2020/12/31 00:25:53;;;;;;;12.80;6.53;;;2.50;99.90;;;;;;4931458;28;20469;-90
2020/12/31 00:28:23;;;;;;;9.97;6.63;;;2.60;99.90;;;;;;4938480;28;20227;-89
2020/12/31 00:30:49;;;;;;;8.43;5.97;;;2.60;99.90;;;;;;4930740;28;20453;-90
2020/12/31 00:33:21;;;;;;;10.87;7.00;;;2.60;99.90;;;;;;4953736;28;21392;-88
2020/12/31 00:35:53;;;;;;;12.70;6.73;;;2.70;99.90;;;;;;4935469;28;20455;-88
2020/12/31 00:38:23;;;;;;;10.30;6.87;;;2.60;99.90;;;;;;4921397;28;20454;-89
2020/12/31 00:40:49;;;;;;;11.97;7.50;;;2.60;99.90;;;;;;4932506;28;20454;-88
2020/12/31 00:43:15;;;;;;;11.80;6.57;;;2.70;99.90;;;;;;4931919;28;20885;-90
2020/12/31 00:45:43;;;;;;;15.30;6.67;;;2.70;99.90;;;;;;4932391;28;20267;-88
2020/12/31 00:48:09;;;;;;;10.17;7.00;;;2.70;99.90;;;;;;4919595;28;20410;-88
2020/12/31 00:50:34;;;;;;;10.00;7.03;;;2.80;99.90;;;;;;4947676;28;20437;-88
2020/12/31 00:53:01;;;;;;;11.30;6.80;;;2.90;99.90;;;;;;4932679;28;20186;-89
2020/12/31 00:55:27;;;;;;;14.87;8.40;;;2.90;99.90;;;;;;4930892;28;20257;-88
2020/12/31 00:57:55;;;;;;;9.10;7.90;;;2.80;99.90;;;;;;4946995;28;20443;-89
2020/12/31 01:00:23;;;;;;;13.13;8.63;;;2.90;99.90;;;;;;4947247;28;20482;-88
2020/12/31 01:02:49;;;;;;;9.27;7.80;;;2.90;99.90;;;;;;4947395;28;21513;-90
2020/12/31 01:05:15;;;;;;;9.93;6.90;;;2.80;99.90;;;;;;4914485;28;21195;-89
2020/12/31 01:07:41;;;;;;;11.33;7.50;;;2.80;99.90;;;;;;4929536;28;20219;-89
2020/12/31 01:10:09;;;;;;;11.00;7.70;;;2.70;99.90;;;;;;4947036;28;20446;-89
2020/12/31 01:12:35;;;;;;;9.70;6.90;;;2.60;99.90;;;;;;4948432;28;20202;-89
2020/12/31 01:15:07;;;;;;;9.83;6.60;;;2.50;99.90;;;;;;4931301;28;20784;-88
2020/12/31 01:17:36;;;;;;;9.87;7.33;;;2.40;99.90;;;;;;4948389;28;20493;-88
2020/12/31 01:20:03;;;;;;;10.67;7.17;;;2.20;99.90;;;;;;4932118;28;20449;-89
2020/12/31 01:22:29;;;;;;;12.93;7.77;;;2.20;99.90;;;;;;4951188;28;20430;-89
2020/12/31 01:24:55;;;;;;;12.40;6.40;;;2.00;99.90;;;;;;4954939;28;20442;-89
2020/12/31 01:27:20;;;;;;;11.20;6.83;;;1.90;99.90;;;;;;4951560;28;20354;-88
2020/12/31 01:29:46;;;;;;;9.97;7.13;;;1.90;99.90;;;;;;4950756;28;20469;-88
2020/12/31 01:32:20;;;;;;;11.57;8.17;;;1.80;99.90;;;;;;4946900;28;20346;-87
2020/12/31 01:34:45;;;;;;;7.47;6.37;;;1.70;99.90;;;;;;4947784;28;20184;-88
2020/12/31 01:37:11;;;;;;;13.03;9.03;;;1.80;99.90;;;;;;4912011;28;20464;-86
2020/12/31 01:39:45;;;;;;;13.43;7.07;;;1.70;99.90;;;;;;4925797;28;20187;-87
2020/12/31 01:42:11;;;;;;;12.13;7.43;;;1.70;99.90;;;;;;4926082;28;20302;-89
2020/12/31 01:44:37;;;;;;;12.20;7.40;;;1.70;99.90;;;;;;4924273;28;20464;-89
2020/12/31 01:47:03;;;;;;;10.33;6.63;;;1.60;99.90;;;;;;4942682;28;21241;-85
2020/12/31 01:49:30;;;;;;;12.90;8.00;;;1.50;99.90;;;;;;4944051;28;20196;-86
2020/12/31 01:51:57;;;;;;;11.77;6.63;;;1.50;99.90;;;;;;4943295;28;20427;-88
2020/12/31 01:54:28;;;;;;;8.47;5.67;;;1.40;99.90;;;;;;4944318;28;20869;-87
2020/12/31 01:56:58;;;;;;;10.90;6.47;;;1.30;99.90;;;;;;4942892;28;20461;-87
2020/12/31 01:59:25;;;;;;;8.43;6.10;;;1.10;99.90;;;;;;4926262;28;20436;-86
2020/12/31 02:01:54;;;;;;;10.50;6.40;;;1.20;99.90;;;;;;4927006;28;20528;-82
2020/12/31 02:04:24;;;;;;;9.33;6.87;;;1.00;99.90;;;;;;4927951;28;20966;-83
2020/12/31 02:06:53;;;;;;;9.00;6.23;;;1.00;99.90;;;;;;4940671;28;20481;-84
2020/12/31 02:09:19;;;;;;;8.60;4.87;;;1.00;99.90;;;;;;4945432;28;20430;-84
2020/12/31 02:11:44;;;;;;;10.13;6.10;;;1.00;99.90;;;;;;4947225;28;20437;-84
2020/12/31 02:14:10;;;;;;;8.60;6.00;;;1.00;99.90;;;;;;4926464;28;20355;-87
2020/12/31 02:16:37;;;;;;;7.23;5.30;;;0.90;99.90;;;;;;4928376;28;20201;-85
2020/12/31 02:19:10;;;;;;;7.80;5.10;;;1.00;99.90;;;;;;4944111;28;20255;-83
2020/12/31 02:21:46;;;;;;;7.30;5.60;;;0.90;99.90;;;;;;4926620;28;20859;-84
2020/12/31 02:24:13;;;;;;;7.80;5.87;;;0.80;99.90;;;;;;4945980;28;20438;-82
2020/12/31 02:26:41;;;;;;;7.77;5.73;;;0.90;99.90;;;;;;4942527;28;20536;-79
2020/12/31 02:29:09;;;;;;;9.50;5.33;;;0.80;99.90;;;;;;4942368;28;20480;-83
2020/12/31 02:31:38;;;;;;;9.67;6.17;;;0.80;99.90;;;;;;4944257;28;21094;-82
2020/12/31 02:34:05;;;;;;;10.10;5.93;;;0.80;99.90;;;;;;4927119;28;20429;-83
2020/12/31 02:36:32;;;;;;;9.30;6.47;;;0.70;99.90;;;;;;4943513;28;20460;-83
2020/12/31 02:39:05;;;;;;;8.87;5.50;;;0.70;99.90;;;;;;4942349;28;20443;-80
2020/12/31 02:41:31;;;;;;;6.73;5.40;;;0.60;99.90;;;;;;4928648;28;20472;-81
2020/12/31 02:43:56;;;;;;;7.60;5.53;;;0.50;99.90;;;;;;4928735;28;20443;-80
2020/12/31 02:46:22;;;;;;;11.40;6.37;;;0.50;99.90;;;;;;4943268;28;20261;-80
2020/12/31 02:48:52;;;;;;;6.57;5.40;;;0.40;99.90;;;;;;4946720;28;20565;-81
2020/12/31 02:51:18;;;;;;;10.77;6.17;;;0.40;99.90;;;;;;4943121;28;20195;-83
2020/12/31 02:53:45;;;;;;;10.00;6.00;;;0.40;99.90;;;;;;4944574;28;20524;-79
2020/12/31 02:56:12;;;;;;;9.67;5.40;;;0.30;99.90;;;;;;4943249;28;20449;-82
2020/12/31 02:58:38;;;;;;;8.67;6.30;;;0.30;99.90;;;;;;4942594;28;20453;-84
2020/12/31 03:01:05;;;;;;;8.17;5.77;;;0.20;99.90;;;;;;4943195;28;20456;-83
2020/12/31 03:03:30;;;;;;;9.43;5.87;;;0.20;99.90;;;;;;4946166;28;20448;-83
2020/12/31 03:05:56;;;;;;;10.63;6.30;;;0.20;99.90;;;;;;4942016;28;20846;-83
2020/12/31 03:08:21;;;;;;;11.97;6.53;;;0.20;99.90;;;;;;4943262;28;20253;-79
2020/12/31 03:10:47;;;;;;;10.03;5.83;;;0.20;99.90;;;;;;4943648;28;20193;-83
2020/12/31 03:13:13;;;;;;;8.03;4.80;;;0.30;99.90;;;;;;4944890;28;20218;-83
2020/12/31 03:15:39;;;;;;;12.90;5.90;;;0.40;99.90;;;;;;4945058;28;20465;-81
2020/12/31 03:18:04;;;;;;;10.70;6.33;;;0.50;99.90;;;;;;4943140;28;20278;-81
2020/12/31 03:20:30;;;;;;;10.33;4.47;;;0.70;99.90;;;;;;4943997;28;20186;-81
2020/12/31 03:22:55;;;;;;;9.80;4.40;;;0.70;99.90;;;;;;4942047;28;20207;-84
2020/12/31 03:25:21;;;;;;;9.17;5.90;;;0.70;99.90;;;;;;4945630;28;20641;-83
2020/12/31 03:27:46;;;;;;;6.10;4.60;;;0.70;99.90;;;;;;4943507;28;20300;-84
2020/12/31 03:30:12;;;;;;;7.63;5.20;;;0.80;99.90;;;;;;4924077;28;20198;-84
2020/12/31 03:32:38;;;;;;;8.90;5.90;;;0.90;99.90;;;;;;4945998;28;20216;-79
2020/12/31 03:35:04;;;;;;;7.40;5.37;;;0.90;99.90;;;;;;4944255;28;20211;-81
2020/12/31 03:37:29;;;;;;;8.27;4.90;;;0.90;99.90;;;;;;4945099;28;20210;-80
2020/12/31 03:39:55;;;;;;;7.50;4.80;;;0.90;99.90;;;;;;4944520;28;20629;-81
2020/12/31 03:42:20;;;;;;;9.30;5.10;;;0.90;99.90;;;;;;4943959;28;20205;-82
2020/12/31 03:44:46;;;;;;;5.00;4.13;;;0.90;99.90;;;;;;4929390;28;20213;-83
2020/12/31 03:47:12;;;;;;;5.27;4.20;;;0.90;99.90;;;;;;4944240;28;20212;-79
2020/12/31 03:49:38;;;;;;;5.53;4.07;;;0.90;99.90;;;;;;4944803;28;20189;-83
2020/12/31 03:52:04;;;;;;;6.47;3.57;;;0.90;99.90;;;;;;4943585;28;20452;-83
2020/12/31 03:54:29;;;;;;;6.80;3.97;;;0.80;99.90;;;;;;4931021;28;20240;-84
2020/12/31 03:56:55;;;;;;;6.50;3.87;;;0.80;99.90;;;;;;4942270;28;20317;-83
2020/12/31 03:59:21;;;;;;;5.20;3.43;;;0.80;99.90;;;;;;4941614;28;20426;-79
2020/12/31 04:01:46;;;;;;;6.03;3.83;;;0.90;99.90;;;;;;4945101;28;20308;-82
2020/12/31 04:04:12;;;;;;;8.57;3.63;;;0.90;99.90;;;;;;4945743;28;20277;-82
2020/12/31 04:06:38;;;;;;;6.67;3.97;;;0.90;99.90;;;;;;4943857;28;20570;-80
2020/12/31 04:09:03;;;;;;;4.80;3.23;;;0.80;99.90;;;;;;4943546;28;20716;-82
2020/12/31 04:11:29;;;;;;;3.63;2.83;;;0.70;99.90;;;;;;4942542;28;20198;-82
2020/12/31 04:13:55;;;;;;;2.93;2.63;;;0.70;99.90;;;;;;4946415;28;20198;-79
2020/12/31 04:16:20;;;;;;;3.70;3.07;;;0.70;99.90;;;;;;4939695;28;20242;-79
2020/12/31 04:18:46;;;;;;;3.40;2.50;;;0.70;99.90;;;;;;4943805;28;20658;-80
2020/12/31 04:21:12;;;;;;;5.87;3.30;;;0.70;99.90;;;;;;4948460;28;20207;-84
2020/12/31 04:23:40;;;;;;;4.83;3.00;;;0.70;99.90;;;;;;4949289;28;20256;-81
2020/12/31 04:26:10;;;;;;;5.57;3.27;;;0.60;99.90;;;;;;4927218;28;20304;-83
2020/12/31 04:28:37;;;;;;;5.67;3.90;;;0.60;99.90;;;;;;4943560;28;20477;-83
2020/12/31 04:31:02;;;;;;;3.97;3.20;;;0.60;99.90;;;;;;4931269;28;20438;-81
2020/12/31 04:33:28;;;;;;;5.30;3.67;;;0.60;99.90;;;;;;4944843;28;20542;-82
2020/12/31 04:35:53;;;;;;;6.77;3.73;;;0.60;99.90;;;;;;4947325;28;20218;-79
2020/12/31 04:38:19;;;;;;;4.23;3.00;;;0.60;99.90;;;;;;4946996;28;20217;-81
2020/12/31 04:40:45;;;;;;;3.80;3.07;;;0.70;99.90;;;;;;4931558;28;20483;-82
2020/12/31 04:43:11;;;;;;;5.63;3.30;;;0.60;99.90;;;;;;4947044;28;20256;-83
2020/12/31 04:45:40;;;;;;;4.07;3.70;;;0.60;99.90;;;;;;4928017;28;20455;-82
2020/12/31 04:48:12;;;;;;;6.30;3.00;;;0.60;99.90;;;;;;4945854;28;20500;-82
2020/12/31 04:50:44;;;;;;;5.17;3.57;;;0.70;99.90;;;;;;4946472;28;20441;-84
2020/12/31 04:53:10;;;;;;;4.30;3.13;;;0.80;99.90;;;;;;4943924;28;20465;-82
2020/12/31 04:55:44;;;;;;;3.37;2.97;;;0.80;99.90;;;;;;4948136;28;20433;-84
2020/12/31 04:58:13;;;;;;;4.20;3.33;;;0.80;99.90;;;;;;4929425;28;20448;-82
2020/12/31 05:00:40;;;;;;;7.50;3.33;;;0.90;99.90;;;;;;4944809;28;20498;-81
2020/12/31 05:03:06;;;;;;;3.67;3.10;;;0.90;99.90;;;;;;4944747;28;21044;-80
2020/12/31 05:05:36;;;;;;;3.10;2.53;;;0.90;99.90;;;;;;4944089;28;20537;-80
2020/12/31 05:08:04;;;;;;;4.63;3.10;;;0.80;99.90;;;;;;4947109;28;20246;-81
2020/12/31 05:10:30;;;;;;;4.40;3.13;;;0.80;99.90;;;;;;4944015;28;20484;-79
2020/12/31 05:13:04;;;;;;;3.77;3.30;;;0.80;99.90;;;;;;4945887;28;20481;-81
2020/12/31 05:15:37;;;;;;;4.20;2.77;;;0.80;99.90;;;;;;4945414;28;20448;-80
2020/12/31 05:18:29;;;;;;;4.53;3.03;;;0.90;99.90;;;;;;4944176;28;20449;-80
2020/12/31 05:21:00;;;;;;;3.73;2.87;;;0.90;99.90;;;;;;4943981;28;20448;-81
2020/12/31 05:23:30;;;;;;;5.60;3.27;;;1.00;99.90;;;;;;4944326;28;20449;-80
2020/12/31 05:25:56;;;;;;;5.30;3.30;;;0.90;99.90;;;;;;4944770;28;20465;-82
2020/12/31 05:28:23;;;;;;;8.60;3.23;;;1.00;99.90;;;;;;4945919;28;20541;-84
2020/12/31 05:30:57;;;;;;;3.77;2.90;;;1.00;99.90;;;;;;4941993;28;21042;-83
2020/12/31 05:33:33;;;;;;;3.80;3.40;;;1.00;99.90;;;;;;4946299;28;20843;-84
2020/12/31 05:36:25;;;;;;;3.80;3.13;;;1.00;99.90;;;;;;4944461;28;20519;-81
2020/12/31 05:38:57;;;;;;;6.03;3.57;;;1.00;99.90;;;;;;4943300;28;20462;-83
2020/12/31 05:41:24;;;;;;;6.43;3.10;;;0.90;99.90;;;;;;4945837;28;20517;-81
2020/12/31 05:43:54;;;;;;;3.93;2.87;;;0.90;99.90;;;;;;4944162;28;20473;-81
2020/12/31 05:46:20;;;;;;;4.50;3.37;;;0.90;99.90;;;;;;4944206;28;20819;-84
2020/12/31 05:48:55;;;;;;;5.53;3.57;;;0.90;99.90;;;;;;4944089;28;20963;-81
2020/12/31 05:51:34;;;;;;;3.87;3.00;;;1.00;99.90;;;;;;4942692;28;20451;-81
2020/12/31 05:54:14;;;;;;;6.17;3.70;;;0.90;99.90;;;;;;4943828;28;20982;-81
2020/12/31 05:56:44;;;;;;;5.57;3.87;;;0.90;99.90;;;;;;4944837;28;20909;-83
2020/12/31 05:59:23;;;;;;;5.20;3.70;;;0.90;99.90;;;;;;4944952;28;20448;-84
2020/12/31 06:01:57;;;;;;;5.00;3.57;;;0.90;99.90;;;;;;4945604;28;20890;-82
2020/12/31 06:04:46;;;;;;;5.30;3.60;;;0.90;99.90;;;;;;4944167;28;20484;-80
2020/12/31 06:07:45;;;;;;;4.20;3.33;;;1.00;99.90;;;;;;4945432;28;21006;-81
2020/12/31 06:10:12;;;;;;;11.33;4.60;;;1.00;99.90;;;;;;4943036;28;20443;-81
2020/12/31 06:12:54;;;;;;;6.07;4.17;;;1.20;99.90;;;;;;4943685;28;20540;-80
2020/12/31 06:15:24;;;;;;;6.00;3.83;;;1.20;99.90;;;;;;4942552;28;20975;-82
2020/12/31 06:17:50;;;;;;;4.60;3.53;;;1.30;99.90;;;;;;4926085;28;20982;-81
2020/12/31 06:20:18;;;;;;;8.33;3.40;;;1.40;99.90;;;;;;4927052;28;20522;-81
2020/12/31 06:23:04;;;;;;;7.53;3.90;;;1.40;99.90;;;;;;4927906;28;20449;-83
2020/12/31 06:25:35;;;;;;;8.60;4.67;;;1.50;99.90;;;;;;4924957;28;20460;-79
2020/12/31 06:28:05;;;;;;;4.70;3.43;;;1.50;99.90;;;;;;4944087;28;20468;-85
2020/12/31 06:30:31;;;;;;;6.40;3.60;;;1.50;99.90;;;;;;4940731;28;20443;-82
2020/12/31 06:33:00;;;;;;;4.93;3.70;;;1.60;99.90;;;;;;4942346;28;20534;-82
2020/12/31 06:35:26;;;;;;;4.33;3.30;;;1.70;99.90;;;;;;4944794;28;20800;-82
2020/12/31 06:37:58;;;;;;;6.83;3.80;;;1.80;99.90;;;;;;4942766;28;20480;-80
2020/12/31 06:40:25;;;;;;;3.73;3.40;;;1.80;99.90;;;;;;4924364;28;20487;-84
2020/12/31 06:43:03;;;;;;;4.83;3.67;;;1.90;99.90;;;;;;4940563;28;20449;-82
2020/12/31 06:45:37;;;;;;;6.13;3.47;;;1.90;99.90;;;;;;4939139;28;20905;-79
2020/12/31 06:48:23;;;;;;;5.43;3.07;;;2.00;99.90;;;;;;4930413;28;20491;-78
2020/12/31 06:50:59;;;;;;;6.17;3.60;;;1.90;99.90;;;;;;4964797;28;20494;-85
2020/12/31 06:53:29;;;;;;;5.60;3.43;;;1.90;99.90;;;;;;4964891;28;20466;-82
2020/12/31 06:55:55;;;;;;;5.60;3.60;;;1.90;99.90;;;;;;4964786;28;20843;-82
2020/12/31 06:58:27;;;;;;;8.07;3.97;;;1.90;99.90;;;;;;4943635;28;20449;-79
2020/12/31 07:00:54;;;;;;;4.80;3.20;;;1.80;99.90;;;;;;4928469;28;20474;-83
2020/12/31 07:03:41;;;;;;;5.93;3.60;;;1.80;99.90;;;;;;4945051;28;20448;-82
2020/12/31 07:06:40;;;;;;;5.63;3.90;;;1.90;99.90;;;;;;4944633;28;20457;-82
2020/12/31 07:09:32;;;;;;;6.13;3.63;;;1.80;99.90;;;;;;4911332;28;20441;-80
2020/12/31 07:12:06;;;;;;;5.53;3.50;;;1.80;99.90;;;;;;4943114;28;20446;-83
2020/12/31 07:14:33;;;;;;;5.90;3.50;;;1.80;99.90;;;;;;4944366;28;20452;-80
2020/12/31 07:17:07;;;;;;;5.27;3.87;;;1.70;99.90;;;;;;4928072;28;20554;-84
2020/12/31 07:19:44;;;;;;;4.73;3.40;;;1.70;99.90;;;;;;4942109;28;20457;-81
2020/12/31 07:22:10;;;;;;;4.07;3.30;;;1.70;99.90;;;;;;4940096;28;20442;-81
2020/12/31 07:24:45;;;;;;;6.27;4.07;;;1.70;99.90;;;;;;4942128;28;20508;-83
2020/12/31 07:27:20;;;;;;;6.70;3.90;;;1.80;99.90;;;;;;4942983;28;20218;-82
2020/12/31 07:29:56;;;;;;;6.60;3.80;;;1.90;99.90;;;;;;4945921;28;20437;-82
2020/12/31 07:32:58;;;;;;;5.40;3.33;;;2.00;99.90;;;;;;4944276;28;20489;-83
2020/12/31 07:35:49;;;;;;;3.47;2.90;;;2.10;99.90;;;;;;4941606;28;20544;-84
2020/12/31 07:38:16;;;;;;;4.67;3.70;;;2.10;99.90;;;;;;4943984;28;20958;-81
2020/12/31 07:40:53;;;;;;;5.07;3.77;;;2.10;99.90;;;;;;4945155;28;20453;-82
2020/12/31 07:43:20;;;;;;;3.97;3.57;;;2.20;99.90;;;;;;4926806;28;20456;-83
2020/12/31 07:45:50;;;;;;;5.40;3.87;;;2.20;99.90;;;;;;4942971;28;21044;-78
2020/12/31 07:48:17;;;;;;;5.10;3.40;;;2.30;99.90;;;;;;4942223;28;20852;-80
2020/12/31 07:50:43;;;;;;;8.00;3.33;;;2.50;99.90;;;;;;4942380;28;20766;-82
2020/12/31 07:53:10;;;;;;;4.80;3.53;;;2.60;99.90;;;;;;4928928;28;20440;-80
2020/12/31 07:55:50;;;;;;;4.00;3.07;;;2.60;99.90;;;;;;4963310;28;20438;-83
2020/12/31 07:58:17;;;;;;;5.83;3.50;;;2.60;99.90;;;;;;4955659;28;20517;-82
2020/12/31 08:00:43;;;;;;;6.93;3.60;;;2.70;99.90;;;;;;4940332;28;20474;-84
2020/12/31 08:03:11;;;;;;;7.50;4.63;;;2.80;99.90;;;;;;4951158;28;20429;-81
2020/12/31 08:05:38;;;;;;;7.60;4.53;;;2.80;99.90;;;;;;4952582;28;20802;-81
2020/12/31 08:08:06;;;;;;;8.10;4.50;;;2.90;99.90;;;;;;4954222;28;20466;-79
2020/12/31 08:10:34;;;;;;;4.40;3.33;;;3.00;99.90;;;;;;4966339;28;20434;-81
2020/12/31 08:13:02;;;;;;;5.33;3.53;;;3.00;99.90;;;;;;4941544;28;20451;-83
2020/12/31 08:15:27;;;;;;;4.97;3.83;;;3.10;99.90;;;;;;4957126;28;20514;-82
2020/12/31 08:17:58;;;;;;;6.20;3.50;;;3.10;99.90;;;;;;4956278;28;20460;-84
2020/12/31 08:20:37;;;;;;;5.23;3.30;;;3.10;99.90;;;;;;4959001;28;20449;-80
2020/12/31 08:23:04;;;;;;;4.20;3.27;;;3.20;99.90;;;;;;4945999;29;21268;-78
2020/12/31 08:25:37;;;;;;;2.97;2.63;;;3.30;99.90;;;;;;4955851;28;20446;-82
2020/12/31 08:28:04;;;;;;;5.03;2.90;;;3.20;99.90;;;;;;4962960;28;20476;-82
2020/12/31 08:30:32;;;;;;;2.27;1.87;;;3.20;99.90;;;;;;4959081;28;20419;-83
2020/12/31 08:32:58;;;;;;;2.17;1.97;;;3.10;99.90;;;;;;4940224;28;20504;-81
2020/12/31 08:35:28;;;;;;;6.23;2.30;;;3.00;99.90;;;;;;4951875;28;20505;-83
2020/12/31 08:38:12;;;;;;;3.17;2.30;;;3.00;99.90;;;;;;4960137;28;20431;-82
2020/12/31 08:40:46;;;;;;;2.70;2.33;;;2.90;99.90;;;;;;4959479;28;20429;-85
2020/12/31 08:43:19;;;;;;;2.30;2.07;;;2.80;99.90;;;;;;4945130;28;20453;-84
2020/12/31 08:45:45;;;;;;;3.67;2.70;;;2.80;99.90;;;;;;4945246;28;20477;-81
2020/12/31 08:48:28;;;;;;;4.17;2.90;;;2.80;99.90;;;;;;4929186;29;20484;-84
2020/12/31 08:51:10;;;;;;;2.73;2.37;;;2.80;99.90;;;;;;4959990;28;20561;-85
2020/12/31 08:54:01;;;;;;;3.73;2.90;;;2.80;99.90;;;;;;4964697;28;20445;-86
2020/12/31 08:56:39;;;;;;;3.10;2.80;;;2.90;99.90;;;;;;4947653;28;20486;-85
2020/12/31 08:59:17;;;;;;;4.07;2.73;;;2.80;99.90;;;;;;4933707;28;20794;-86
2020/12/31 09:01:45;;;;;;;5.30;3.00;;;2.80;99.90;;;;;;4961398;28;20445;-87
2020/12/31 09:04:28;;;;;;;5.33;3.50;;;2.90;99.90;;;;;;4928133;28;20560;-87
2020/12/31 09:06:57;;;;;;;3.77;3.00;;;2.90;99.90;;;;;;4958017;28;20458;-84
2020/12/31 09:09:38;;;;;;;3.00;2.43;;;2.90;99.90;;;;;;4949683;28;20459;-87
2020/12/31 09:12:35;;;;;;;;;;;;;;;;;;;;;
2020/12/31 09:15:22;;;;;;;4.70;2.87;;;3.00;99.90;;;;;;4961641;28;20462;-87
2020/12/31 09:17:51;;;;;;;3.57;2.63;;;3.00;99.90;;;;;;4941246;29;20465;-89
2020/12/31 09:20:27;;;;;;;3.67;2.97;;;3.00;99.90;;;;;;4958315;28;20463;-85
2020/12/31 09:23:43;;;;;;;3.20;2.67;;;3.10;99.90;;;;;;4943844;28;20414;-89
2020/12/31 09:26:26;;;;;;;3.67;3.10;;;3.10;99.90;;;;;;4949676;28;20451;-89
2020/12/31 09:28:54;;;;;;;5.77;3.97;;;3.10;99.90;;;;;;4984477;23;20502;-88
2020/12/31 09:31:26;;;;;;;6.87;5.20;;;3.10;99.90;;;;;;4944001;28;20445;-85
2020/12/31 09:33:54;;;;;;;9.27;5.47;;;3.20;99.90;;;;;;4959202;28;20474;-87
2020/12/31 09:36:32;;;;;;;5.00;3.60;;;3.20;99.90;;;;;;4943139;28;20466;-88
2020/12/31 09:39:14;;;;;;;4.80;2.80;;;3.40;99.90;;;;;;4939167;29;20439;-87
2020/12/31 09:41:40;;;;;;;4.27;3.03;;;3.40;99.90;;;;;;4950559;28;20481;-88
2020/12/31 09:44:19;;;;;;;4.80;3.70;;;3.40;99.90;;;;;;4943639;28;20454;-88
2020/12/31 09:47:19;;;;;;;5.60;3.70;;;3.30;99.90;;;;;;5028250;23;20499;-87
2020/12/31 09:50:01;;;;;;;6.57;3.40;;;3.40;99.90;;;;;;4947493;28;20892;-87
2020/12/31 09:52:27;;;;;;;5.00;4.10;;;3.40;99.90;;;;;;4950488;28;20501;-86
2020/12/31 09:55:04;;;;;;;8.10;4.97;;;3.40;99.90;;;;;;4941461;28;20483;-87
2020/12/31 09:57:45;;;;;;;6.50;4.70;;;3.50;99.90;;;;;;4922488;28;20447;-87
2020/12/31 10:00:13;;;;;;;3.90;3.50;;;3.40;99.90;;;;;;4932571;28;20447;-86
2020/12/31 10:02:42;;;;;;;4.40;3.10;;;3.40;99.90;;;;;;4922845;29;20454;-86
2020/12/31 10:05:08;;;;;;;7.40;5.03;;;3.40;99.90;;;;;;4923624;29;20427;-88
2020/12/31 10:07:36;;;;;;;5.77;4.10;;;3.40;99.90;;;;;;4921365;29;21006;-89
2020/12/31 10:10:43;;;;;;;4.30;3.77;;;3.30;99.90;;;;;;4921783;29;20440;-89
2020/12/31 10:13:26;;;;;;;4.23;3.80;;;3.30;99.90;;;;;;4925044;29;20447;-89
2020/12/31 10:15:51;;;;;;;3.97;3.57;;;3.40;99.90;;;;;;4924040;29;20464;-89
2020/12/31 10:18:31;;;;;;;10.43;4.60;;;3.30;99.90;;;;;;4922642;29;20462;-89
2020/12/31 10:21:03;;;;;;;5.00;3.77;;;3.50;99.90;;;;;;4939317;28;20196;-87
2020/12/31 10:23:40;;;;;;;5.10;3.40;;;3.40;99.90;;;;;;4922421;29;20436;-88
2020/12/31 10:26:13;;;;;;;9.93;4.53;;;3.50;99.90;;;;;;4931630;28;20772;-91
2020/12/31 10:28:47;;;;;;;7.00;4.20;;;3.60;99.90;;;;;;4931574;28;20498;-91
2020/12/31 10:31:22;;;;;;;6.80;4.57;;;3.30;99.90;;;;;;4951268;28;20691;-88
2020/12/31 10:33:56;;;;;;;16.47;10.83;;;3.50;99.90;;;;;;4943898;28;20441;-88
2020/12/31 10:36:25;;;;;;;6.00;4.30;;;3.30;99.90;;;;;;4949351;28;20493;-89
2020/12/31 10:38:53;;;;;;;5.70;4.37;;;3.40;99.90;;;;;;4934714;28;20468;-89
2020/12/31 10:41:26;;;;;;;7.90;4.30;;;3.40;99.90;;;;;;4947039;28;21040;-90
2020/12/31 10:43:58;;;;;;;7.23;5.10;;;3.30;99.90;;;;;;4950607;28;20450;-90
2020/12/31 10:46:30;;;;;;;7.57;4.17;;;3.30;99.90;;;;;;4936584;28;21001;-89
2020/12/31 10:49:06;;;;;;;7.70;4.63;;;3.40;99.90;;;;;;4923815;29;20480;-89
2020/12/31 10:51:40;;;;;;;7.30;4.70;;;3.40;99.90;;;;;;4930051;29;20460;-91
2020/12/31 10:54:13;;;;;;;6.10;4.40;;;3.50;99.90;;;;;;4948714;28;20450;-89
2020/12/31 10:56:43;;;;;;;6.73;4.40;;;3.50;99.90;;;;;;4950570;28;20451;-88
2020/12/31 10:59:26;;;;;;;10.33;4.53;;;3.50;99.90;;;;;;4950477;28;20431;-90
2020/12/31 11:02:01;;;;;;;6.70;4.47;;;3.50;99.90;;;;;;4948258;28;20451;-90
2020/12/31 11:04:33;;;;;;;5.90;4.53;;;3.50;99.90;;;;;;4939475;28;20454;-90
2020/12/31 11:09:36;;;;;;;9.30;5.17;;;3.50;99.90;;;;;;5129800;23;20677;-92
2020/12/31 11:12:02;;;;;;;6.40;5.10;;;3.60;99.90;;;;;;4972121;28;20446;-91
2020/12/31 11:14:35;;;;;;;6.53;5.27;;;3.60;99.90;;;;;;4970970;28;20740;-91
2020/12/31 11:17:14;;;;;;;6.63;5.23;;;3.80;99.90;;;;;;4965639;28;20473;-89
2020/12/31 11:20:03;;;;;;;6.87;5.47;;;3.80;99.90;;;;;;4940039;28;20430;-88
2020/12/31 11:22:32;;;;;;;6.40;4.77;;;3.90;99.90;;;;;;4946337;28;20434;-87
2020/12/31 11:25:01;;;;;;;7.03;5.40;;;4.10;99.90;;;;;;4951056;28;20424;-86
2020/12/31 11:27:27;;;;;;;6.97;5.43;;;4.20;99.90;;;;;;4960100;28;20799;-87
2020/12/31 11:30:14;;;;;;;8.37;6.17;;;4.20;99.90;;;;;;4948304;28;20502;-88
2020/12/31 11:33:10;;;;;;;9.40;5.93;;;4.10;99.90;;;;;;4951188;28;20564;-87
2020/12/31 11:40:49;;;;;;;7.87;5.83;;;4.30;99.90;;;;;;5183106;23;20654;-91
2020/12/31 11:43:57;;;;;;;9.60;6.70;;;4.20;99.90;;;;;;4952445;28;20521;-89
2020/12/31 11:46:23;;;;;;;8.73;5.90;;;4.30;99.90;;;;;;4907918;28;20949;-90
2020/12/31 11:48:49;;;;;;;8.70;5.83;;;4.20;99.90;;;;;;4948054;28;20489;-89
2020/12/31 11:51:14;;;;;;;7.77;5.20;;;4.30;99.90;;;;;;4945860;28;20413;-90
2020/12/31 11:53:43;;;;;;;10.00;5.87;;;4.40;99.90;;;;;;4948471;28;20190;-86
2020/12/31 11:56:21;;;;;;;7.90;5.70;;;4.40;99.90;;;;;;4946111;28;20504;-89
2020/12/31 11:59:02;;;;;;;7.50;5.90;;;4.40;99.90;;;;;;4935933;28;20509;-89
2020/12/31 12:01:30;;;;;;;8.90;5.73;;;4.40;99.90;;;;;;4950207;28;20956;-86
2020/12/31 12:03:56;;;;;;;6.87;5.00;;;4.30;99.90;;;;;;4966172;28;20485;-87
2020/12/31 12:06:22;;;;;;;5.57;4.77;;;4.30;99.90;;;;;;4954636;28;20490;-86
2020/12/31 12:09:08;;;;;;;;;;;;;;;;;;;;;
2020/12/31 12:11:37;;;;;;;5.63;4.23;;;4.60;99.90;;;;;;4966836;28;20189;-87
2020/12/31 12:14:02;;;;;;;7.87;5.07;;;4.80;99.90;;;;;;4969324;28;20421;-87
2020/12/31 12:16:40;;;;;;;7.63;4.50;;;4.90;99.90;;;;;;4946187;28;21270;-84
2020/12/31 12:19:16;;;;;;;4.97;4.00;;;5.00;99.90;;;;;;4969703;28;20269;-85
2020/12/31 12:21:59;;;;;;;7.07;4.90;;;5.00;99.90;;;;;;4950525;28;20441;-82
2020/12/31 12:24:32;;;;;;;4.13;3.13;;;5.10;99.90;;;;;;4966917;28;20572;-84
2020/12/31 12:27:00;;;;;;;4.50;3.57;;;5.20;99.90;;;;;;4954538;28;20877;-86
2020/12/31 12:29:26;;;;;;;4.67;3.00;;;5.20;99.90;;;;;;4953889;28;20452;-85
2020/12/31 12:31:57;;;;;;;4.43;3.97;;;5.10;99.90;;;;;;4955931;28;20529;-85
2020/12/31 12:34:26;;;;;;;6.00;3.63;;;5.00;99.90;;;;;;4950543;28;20481;-86
2020/12/31 12:36:54;;;;;;;3.93;3.53;;;4.90;99.90;;;;;;4955698;28;20457;-83
2020/12/31 12:39:31;;;;;;;7.00;4.30;;;5.00;99.90;;;;;;4971208;28;20434;-84
2020/12/31 12:42:03;;;;;;;4.90;4.10;;;5.00;99.90;;;;;;4955256;28;20457;-85
2020/12/31 12:44:28;;;;;;;5.10;4.10;;;4.90;99.90;;;;;;4969923;28;20696;-85
2020/12/31 12:46:54;;;;;;;7.97;5.60;;;5.00;99.90;;;;;;4953712;28;22010;-85
2020/12/31 12:49:23;;;;;;;5.67;4.00;;;5.00;99.90;;;;;;4976831;28;20202;-87
2020/12/31 12:51:54;;;;;;;6.90;6.07;;;5.10;99.90;;;;;;4967590;28;20235;-83
2020/12/31 12:54:25;;;;;;;7.03;4.73;;;5.00;99.90;;;;;;4945553;28;20753;-83
2020/12/31 12:56:56;;;;;;;5.17;4.10;;;5.00;99.90;;;;;;4949111;28;20510;-82
2020/12/31 12:59:22;;;;;;;7.13;5.27;;;5.10;99.90;;;;;;4935316;28;20446;-85
2020/12/31 13:02:04;;;;;;;6.20;4.73;;;5.40;99.90;;;;;;4961809;28;21007;-86
2020/12/31 13:04:29;;;;;;;4.43;4.03;;;5.70;99.90;;;;;;4934465;28;20198;-83
2020/12/31 13:07:12;;;;;;;8.53;5.03;;;5.90;99.90;;;;;;4930322;28;20760;-85
2020/12/31 13:09:37;;;;;;;5.87;5.20;;;6.10;99.90;;;;;;4943493;28;20194;-87
2020/12/31 13:12:06;;;;;;;5.10;4.40;;;6.00;99.90;;;;;;4961021;28;20929;-87
2020/12/31 13:14:39;;;;;;;4.27;3.87;;;6.00;99.90;;;;;;4930407;28;20190;-86
2020/12/31 13:17:10;;;;;;;5.33;4.03;;;6.10;99.90;;;;;;4932215;28;20598;-84
2020/12/31 13:19:36;;;;;;;7.03;4.13;;;5.90;99.90;;;;;;4939066;28;20595;-85
2020/12/31 13:22:15;;;;;;;5.10;4.10;;;6.20;99.90;;;;;;4965365;28;20442;-84
2020/12/31 13:24:41;;;;;;;4.30;3.90;;;6.20;99.90;;;;;;4954187;28;20702;-86
2020/12/31 13:27:18;;;;;;;8.13;4.93;;;6.00;99.90;;;;;;4945530;28;20498;-87